Time;durP1;ratioP1;P1;durP2;ratioP2;P2;SDS_P1;SDS_P2;PMS_P1;PMS_P2;Temp;Humidity;BMP_temperature;BMP_pressure;BME280_temperature;BME280_humidity;BME280_pressure;Samples;Min_cycle;Max_cycle;Signal;HPM_P1;HPM_P2
2023/04/04 00:01:31;;;;;;;;;;;;;;;0.27;92.98;101519.25;5052082;28;19968;-75
2023/04/04 00:03:56;;;;;;;;;;;;;;;0.36;92.01;101514.09;5051946;28;20240;-75
2023/04/04 00:06:21;;;;;;;;;;;;;;;0.39;92.46;101512.50;5062147;28;19925;-77
2023/04/04 00:08:47;;;;;;;;;;;;;;;0.42;91.43;101512.50;5057015;28;19916;-77
2023/04/04 00:11:12;;;;;;;;;;;;;;;0.51;91.42;101518.59;5057148;28;19913;-76
2023/04/04 00:13:38;;;;;;;;;;;;;;;0.54;90.58;101509.38;5057335;28;19920;-75
2023/04/04 00:16:04;;;;;;;;;;;;;;;0.55;90.86;101502.56;5039678;28;19919;-75
2023/04/04 00:18:29;;;;;;;;;;;;;;;0.54;90.31;101503.75;5038076;28;20007;-76
2023/04/04 00:20:55;;;;;;;;;;;;;;;0.59;90.23;101500.56;5038038;28;19920;-76
2023/04/04 00:23:20;;;;;;;;;;;;;;;0.58;89.20;101501.75;5055700;28;19913;-77
2023/04/04 00:25:51;;;;;;;;;;;;;;;0.56;88.64;101492.13;5055616;28;19913;-76
2023/04/04 00:28:17;;;;;;;;;;;;;;;0.63;88.86;101489.31;5055975;28;19939;-76
2023/04/04 00:30:43;;;;;;;;;;;;;;;0.70;89.21;101494.97;5055577;28;19913;-76
2023/04/04 00:33:08;;;;;;;;;;;;;;;0.74;88.98;101495.78;5055485;28;19920;-76
2023/04/04 00:35:33;;;;;;;;;;;;;;;0.76;88.52;101492.59;5055095;28;20357;-77
2023/04/04 00:37:59;;;;;;;;;;;;;;;0.79;88.91;101488.97;5055142;28;19913;-77
2023/04/04 00:40:24;;;;;;;;;;;;;;;0.84;88.24;101495.03;5037077;28;19916;-77
2023/04/04 00:42:49;;;;;;;;;;;;;;;0.86;88.38;101486.97;5054809;28;19913;-77
2023/04/04 00:45:15;;;;;;;;;;;;;;;0.86;87.76;101486.97;5054912;28;20285;-77
2023/04/04 00:47:41;;;;;;;;;;;;;;;0.87;87.51;101477.34;5054795;28;20354;-76
2023/04/04 00:50:06;;;;;;;;;;;;;;;0.90;87.70;101481.38;5054733;28;19913;-77
2023/04/04 00:52:32;;;;;;;;;;;;;;;0.88;88.01;101484.56;5054664;28;19963;-75
2023/04/04 00:54:57;;;;;;;;;;;;;;;0.82;88.01;101472.09;5035593;28;19913;-75
2023/04/04 00:57:23;;;;;;;;;;;;;;;0.82;87.50;101477.72;5052420;28;19913;-76
2023/04/04 00:59:48;;;;;;;;;;;;;;;0.83;88.01;101481.34;5052369;28;19913;-77
2023/04/04 01:02:13;;;;;;;;;;;;;;;0.86;88.79;101472.13;5034195;28;19932;-75
2023/04/04 01:04:39;;;;;;;;;;;;;;;0.90;88.52;101470.13;5051985;28;19958;-75
2023/04/04 01:07:04;;;;;;;;;;;;;;;0.90;89.00;101475.75;5034484;28;20366;-75
2023/04/04 01:09:32;;;;;;;;;;;;;;;0.91;88.34;101474.56;5051549;28;20458;-75
2023/04/04 01:11:57;;;;;;;;;;;;;;;0.92;88.09;101478.94;5054449;28;19913;-76
2023/04/04 01:14:22;;;;;;;;;;;;;;;0.93;88.15;101472.94;5052184;28;20397;-75
2023/04/04 01:16:50;;;;;;;;;;;;;;;0.97;87.54;101470.13;5052082;28;19939;-76
2023/04/04 01:19:21;;;;;;;;;;;;;;;0.96;87.25;101466.50;5052025;28;19913;-77
2023/04/04 01:21:46;;;;;;;;;;;;;;;0.95;86.98;101456.47;5034455;28;20128;-76
2023/04/04 01:24:12;;;;;;;;;;;;;;;0.98;86.77;101458.47;5034061;28;19916;-76
2023/04/04 01:26:37;;;;;;;;;;;;;;;0.97;86.78;101453.25;5034256;28;20273;-76
2023/04/04 01:29:02;;;;;;;;;;;;;;;0.95;86.31;101453.66;5035463;28;19913;-77
2023/04/04 01:31:28;;;;;;;;;;;;;;;0.88;86.50;101450.81;5054041;28;20012;-77
2023/04/04 01:34:13;;;;;;;;;;;;;;;0.85;85.74;101454.44;5054008;28;19978;-77
2023/04/04 01:36:45;;;;;;;;;;;;;;;0.82;85.74;101448.78;5053585;28;19936;-76
2023/04/04 01:39:20;;;;;;;;;;;;;;;0.79;86.48;101447.59;5035969;28;19912;-77
2023/04/04 01:41:46;;;;;;;;;;;;;;;0.76;86.36;101448.41;5035831;28;19913;-75
2023/04/04 01:44:13;;;;;;;;;;;;;;;0.71;86.59;101447.97;5035714;28;20361;-76
2023/04/04 01:46:38;;;;;;;;;;;;;;;0.51;87.85;101439.88;5053693;28;19917;-77
2023/04/04 01:49:03;;;;;;;;;;;;;;;0.45;88.77;101437.84;5035734;28;20294;-75
2023/04/04 01:51:29;;;;;;;;;;;;;;;0.43;88.05;101440.22;5035672;28;20318;-75
2023/04/04 01:53:54;;;;;;;;;;;;;;;0.35;88.37;101442.22;5035772;28;20038;-76
2023/04/04 01:56:20;;;;;;;;;;;;;;;0.26;88.66;101440.97;5035686;28;20003;-76
2023/04/04 01:58:45;;;;;;;;;;;;;;;0.26;89.36;101440.97;5053205;28;20063;-76
2023/04/04 02:01:10;;;;;;;;;;;;;;;0.23;89.10;101436.13;5053593;28;20362;-75
2023/04/04 02:03:35;;;;;;;;;;;;;;;0.20;87.98;101431.28;5053479;28;19919;-77
2023/04/04 02:06:01;;;;;;;;;;;;;;;0.20;88.00;101428.47;5031978;28;20374;-77
2023/04/04 02:08:27;;;;;;;;;;;;;;;0.15;87.05;101429.66;5033623;28;19964;-75
2023/04/04 02:10:52;;;;;;;;;;;;;;;0.13;86.34;101429.25;5032049;28;20359;-73
2023/04/04 02:13:18;;;;;;;;;;;;;;;0.17;85.30;101422.44;5014946;28;19921;-73
2023/04/04 02:15:44;;;;;;;;;;;;;;;0.24;84.49;101424.50;5032364;28;19913;-75
2023/04/04 02:18:09;;;;;;;;;;;;;;;0.31;83.70;101432.16;5032381;28;19984;-73
2023/04/04 02:20:34;;;;;;;;;;;;;;;0.41;83.48;101432.19;5033427;28;19917;-73
2023/04/04 02:22:59;;;;;;;;;;;;;;;0.48;83.73;101420.97;5033539;28;19920;-74
2023/04/04 02:25:25;;;;;;;;;;;;;;;0.55;83.32;101428.63;5033340;28;19921;-73
2023/04/04 02:27:50;;;;;;;;;;;;;;;0.59;82.61;101432.25;5032071;28;20278;-74
2023/04/04 02:30:15;;;;;;;;;;;;;;;0.63;82.34;101444.31;5033614;28;19913;-73
2023/04/04 02:32:41;;;;;;;;;;;;;;;0.66;82.67;101439.91;5033567;28;19913;-75
2023/04/04 02:35:07;;;;;;;;;;;;;;;0.69;82.44;101439.13;5048584;28;19920;-75
2023/04/04 02:37:32;;;;;;;;;;;;;;;0.72;83.61;101430.69;5039893;28;19913;-73
2023/04/04 02:39:57;;;;;;;;;;;;;;;0.78;82.88;101428.28;5048625;28;20290;-73
2023/04/04 02:42:23;;;;;;;;;;;;;;;0.82;83.57;101434.72;5033122;28;19935;-73
2023/04/04 02:44:48;;;;;;;;;;;;;;;0.85;83.53;101436.75;5033283;28;20358;-72
2023/04/04 02:47:13;;;;;;;;;;;;;;;0.89;83.53;101437.56;5033233;28;19990;-73
2023/04/04 02:49:39;;;;;;;;;;;;;;;0.90;83.29;101439.97;5033086;28;20381;-73
2023/04/04 02:52:04;;;;;;;;;;;;;;;0.91;83.78;101438.75;5033172;28;19971;-73
2023/04/04 02:54:29;;;;;;;;;;;;;;;0.91;84.63;101438.75;5033106;28;19967;-74
2023/04/04 02:56:55;;;;;;;;;;;;;;;0.91;84.09;101438.75;5032920;28;19913;-74
2023/04/04 02:59:20;;;;;;;;;;;;;;;0.95;84.51;101438.78;5032596;28;19913;-75
2023/04/04 03:01:45;;;;;;;;;;;;;;;0.98;84.91;101432.34;5015142;28;19982;-73
2023/04/04 03:04:11;;;;;;;;;;;;;;;1.00;85.02;101427.13;5032698;28;19924;-74
2023/04/04 03:06:38;;;;;;;;;;;;;;;0.99;84.23;101433.97;5018435;28;20061;-72
2023/04/04 03:09:04;;;;;;;;;;;;;;;0.99;83.82;101436.78;5053002;28;20281;-75
2023/04/04 03:11:30;;;;;;;;;;;;;;;0.98;84.06;101429.53;5052997;28;19913;-73
2023/04/04 03:13:55;;;;;;;;;;;;;;;0.93;83.91;101432.75;5035217;28;19999;-73
2023/04/04 03:16:21;;;;;;;;;;;;;;;0.89;83.54;101440.38;5052929;28;19913;-73
2023/04/04 03:18:46;;;;;;;;;;;;;;;0.82;84.26;101434.72;5034859;28;19916;-74
2023/04/04 03:21:11;;;;;;;;;;;;;;;0.75;84.80;101437.53;5034743;28;19917;-75
2023/04/04 03:23:37;;;;;;;;;;;;;;;0.69;84.84;101436.31;5034866;28;19913;-76
2023/04/04 03:26:02;;;;;;;;;;;;;;;0.61;86.02;101429.88;5056308;28;19924;-77
2023/04/04 03:28:28;;;;;;;;;;;;;;;0.52;86.75;101430.22;5056235;28;20318;-77
2023/04/04 03:30:53;;;;;;;;;;;;;;;0.41;86.97;101435.03;5056445;28;19920;-77
2023/04/04 03:33:20;;;;;;;;;;;;;;;0.32;88.78;101442.22;5056557;28;19996;-76
2023/04/04 03:35:46;;;;;;;;;;;;;;;0.28;88.96;101438.56;5056157;28;20004;-76
2023/04/04 03:38:11;;;;;;;;;;;;;;;0.28;89.03;101433.75;5056311;28;19963;-76
2023/04/04 03:40:37;;;;;;;;;;;;;;;0.34;89.54;101442.59;5055989;28;19960;-78
2023/04/04 03:43:02;;;;;;;;;;;;;;;0.36;90.89;101441.00;5055987;28;19917;-76
2023/04/04 03:45:29;;;;;;;;;;;;;;;0.39;90.56;101439.41;5056182;28;19999;-76
2023/04/04 03:47:54;;;;;;;;;;;;;;;0.34;92.02;101437.78;5056119;28;19961;-76
2023/04/04 03:50:19;;;;;;;;;;;;;;;0.34;91.86;101436.97;5056121;28;19913;-76
2023/04/04 03:52:46;;;;;;;;;;;;;;;0.39;92.68;101428.97;5056160;28;20007;-76
2023/04/04 03:55:11;;;;;;;;;;;;;;;0.42;92.71;101432.97;5055776;28;20012;-77
2023/04/04 03:57:36;;;;;;;;;;;;;;;0.43;92.59;101431.78;5055666;28;20011;-76
2023/04/04 04:00:03;;;;;;;;;;;;;;;0.41;94.60;101425.78;5055749;28;19912;-76
2023/04/04 04:02:28;;;;;;;;;;;;;;;0.35;95.89;101428.16;5055983;28;19913;-78
2023/04/04 04:04:54;;;;;;;;;;;;;;;0.32;95.63;101428.16;5055442;28;19925;-76
2023/04/04 04:07:21;;;;;;;;;;;;;;;0.32;94.92;101428.94;5055460;28;20377;-76
2023/04/04 04:09:46;;;;;;;;;;;;;;;0.34;95.77;101431.34;5055884;28;19917;-75
2023/04/04 04:12:13;;;;;;;;;;;;;;;0.39;96.14;101428.16;5060228;28;19916;-78
2023/04/04 04:14:40;;;;;;;;;;;;;;;0.40;97.17;101429.78;5053489;28;19971;-76
2023/04/04 04:17:06;;;;;;;;;;;;;;;0.38;97.10;101432.97;5071566;28;19916;-76
2023/04/04 04:19:32;;;;;;;;;;;;;;;0.42;96.88;101427.34;5070781;28;19913;-76
2023/04/04 04:21:59;;;;;;;;;;;;;;;0.49;96.34;101431.03;5061269;28;19912;-76
2023/04/04 04:24:26;;;;;;;;;;;;;;;0.54;96.95;101435.44;5059563;28;20435;-76
2023/04/04 04:26:52;;;;;;;;;;;;;;;0.56;96.80;101435.88;5059350;28;19924;-76
2023/04/04 04:29:18;;;;;;;;;;;;;;;0.61;96.55;101427.06;5055473;28;19913;-77
2023/04/04 04:31:46;;;;;;;;;;;;;;;0.64;96.86;101434.69;5055360;28;19924;-76
2023/04/04 04:34:13;;;;;;;;;;;;;;;0.68;96.91;101429.88;5037762;28;20003;-76
2023/04/04 04:36:39;;;;;;;;;;;;;;;0.70;97.23;101432.28;5054909;28;19920;-75
2023/04/04 04:39:06;;;;;;;;;;;;;;;0.63;96.82;101430.25;5055085;28;20046;-76
2023/04/04 04:41:31;;;;;;;;;;;;;;;0.63;96.99;101424.63;5055672;28;19936;-76
2023/04/04 04:43:58;;;;;;;;;;;;;;;0.72;97.20;101425.06;5054909;28;20354;-76
2023/04/04 04:46:24;;;;;;;;;;;;;;;0.79;96.21;101429.91;5036485;28;19913;-76
2023/04/04 04:48:50;;;;;;;;;;;;;;;0.85;96.20;101431.94;5020544;28;19959;-76
2023/04/04 04:51:16;;;;;;;;;;;;;;;0.90;96.17;101425.09;5052481;28;19992;-76
2023/04/04 04:53:42;;;;;;;;;;;;;;;0.86;95.68;101427.13;5037185;28;19940;-78
2023/04/04 04:56:09;;;;;;;;;;;;;;;0.85;96.12;101431.94;5053481;28;20314;-78
2023/04/04 04:58:44;;;;;;;;;;;;;;;0.88;95.52;101427.50;5055197;28;19916;-77
2023/04/04 05:01:11;;;;;;;;;;;;;;;0.94;94.93;101437.97;5054653;28;19924;-73
2023/04/04 05:03:36;;;;;;;;;;;;;;;0.96;92.66;101440.41;5036540;28;20110;-73
2023/04/04 05:06:02;;;;;;;;;;;;;;;0.81;92.43;101439.53;5053357;28;20004;-74
2023/04/04 05:08:27;;;;;;;;;;;;;;;0.79;91.28;101441.97;5054202;28;19917;-74
2023/04/04 05:10:53;;;;;;;;;;;;;;;0.86;91.74;101444.00;5054489;28;20011;-73
2023/04/04 05:13:20;;;;;;;;;;;;;;;0.90;91.10;101442.81;5052578;28;19999;-73
2023/04/04 05:15:47;;;;;;;;;;;;;;;1.01;90.10;101443.59;5036790;28;19913;-75
2023/04/04 05:18:13;;;;;;;;;;;;;;;1.12;90.00;101446.44;5020141;28;19913;-72
2023/04/04 05:20:38;;;;;;;;;;;;;;;1.16;88.85;101452.09;5019760;28;20107;-73
2023/04/04 05:23:04;;;;;;;;;;;;;;;1.15;88.81;101448.47;5036280;28;20349;-74
2023/04/04 05:25:29;;;;;;;;;;;;;;;1.06;88.43;101450.84;5054117;28;20318;-73
2023/04/04 05:27:56;;;;;;;;;;;;;;;1.04;87.50;101453.28;5052435;28;19995;-75
2023/04/04 05:30:22;;;;;;;;;;;;;;;1.03;87.38;101452.47;5053086;28;20004;-73
2023/04/04 05:32:47;;;;;;;;;;;;;;;1.14;88.03;101455.28;5053812;28;19992;-72
2023/04/04 05:35:12;;;;;;;;;;;;;;;1.26;86.84;101454.09;5036009;28;19959;-71
2023/04/04 05:37:39;;;;;;;;;;;;;;;1.25;85.69;101458.13;5054276;28;19917;-75
2023/04/04 05:40:04;;;;;;;;;;;;;;;1.14;84.17;101455.28;5053551;28;20484;-75
2023/04/04 05:42:30;;;;;;;;;;;;;;;1.21;85.27;101466.53;5051957;28;20000;-74
2023/04/04 05:44:55;;;;;;;;;;;;;;;1.32;85.47;101461.75;5034293;28;19916;-72
2023/04/04 05:47:21;;;;;;;;;;;;;;;1.51;84.81;101460.53;5034642;28;19913;-75
2023/04/04 05:49:46;;;;;;;;;;;;;;;1.64;83.83;101455.31;5051106;28;19995;-75
2023/04/04 05:52:11;;;;;;;;;;;;;;;1.63;80.15;101460.16;5051702;28;19912;-74
2023/04/04 05:54:37;;;;;;;;;;;;;;;1.65;78.96;101468.19;5051486;28;19912;-77
2023/04/04 05:57:02;;;;;;;;;;;;;;;1.74;78.55;101465.78;5051696;28;19920;-76
2023/04/04 05:59:27;;;;;;;;;;;;;;;1.74;77.49;101458.13;5051462;28;20397;-75
2023/04/04 06:01:53;;;;;;;;;;;;;;;1.81;77.25;101455.28;5051779;28;19996;-75
2023/04/04 06:04:18;;;;;;;;;;;;;;;1.90;75.53;101454.88;5053130;28;19917;-76
2023/04/04 06:06:44;;;;;;;;;;;;;;;2.00;74.24;101454.03;5053247;28;19956;-76
2023/04/04 06:09:09;;;;;;;;;;;;;;;1.97;72.15;101466.13;5035593;28;19936;-75
2023/04/04 06:11:34;;;;;;;;;;;;;;;2.13;73.32;101462.88;5053331;28;19944;-74
2023/04/04 06:14:00;;;;;;;;;;;;;;;2.23;71.58;101473.34;5053464;28;20228;-75
2023/04/04 06:16:25;;;;;;;;;;;;;;;2.11;68.96;101463.28;5053371;28;20354;-74
2023/04/04 06:18:50;;;;;;;;;;;;;;;2.11;68.52;101463.28;5035857;28;19913;-75
2023/04/04 06:21:16;;;;;;;;;;;;;;;2.30;68.55;101468.47;5035441;28;19913;-74
2023/04/04 06:23:41;;;;;;;;;;;;;;;2.26;66.74;101467.69;5053283;28;20266;-75
2023/04/04 06:26:07;;;;;;;;;;;;;;;2.46;67.76;101458.75;5053311;28;19963;-75
2023/04/04 06:28:32;;;;;;;;;;;;;;;2.66;66.98;101469.13;5035528;28;20390;-75
2023/04/04 06:30:57;;;;;;;;;;;;;;;2.78;65.91;101470.72;5053249;28;20416;-76
2023/04/04 06:33:24;;;;;;;;;;;;;;;2.90;65.56;101464.56;5053070;28;20226;-75
2023/04/04 06:35:50;;;;;;;;;;;;;;;2.94;61.93;101470.19;5053331;28;19913;-76
2023/04/04 06:38:16;;;;;;;;;;;;;;;2.91;62.86;101471.84;5035237;28;19912;-71
2023/04/04 06:40:42;;;;;;;;;;;;;;;3.13;64.01;101462.00;5053419;28;20291;-73
2023/04/04 06:43:10;;;;;;;;;;;;;;;3.29;62.10;101469.97;5035198;28;20387;-72
2023/04/04 06:45:37;;;;;;;;;;;;;;;3.33;60.92;101469.97;5052988;28;19944;-73
2023/04/04 06:48:03;;;;;;;;;;;;;;;3.47;60.69;101464.22;5034848;28;19970;-74
2023/04/04 06:50:33;;;;;;;;;;;;;;;3.57;59.96;101461.31;5034794;28;20286;-72
2023/04/04 06:53:00;;;;;;;;;;;;;;;3.76;59.60;101464.75;5034773;28;20015;-73
2023/04/04 06:55:28;;;;;;;;;;;;;;;3.93;56.41;101464.63;5035162;28;19920;-73
2023/04/04 06:57:59;;;;;;;;;;;;;;;4.13;55.11;101470.47;5051829;28;19916;-73
2023/04/04 07:00:26;;;;;;;;;;;;;;;4.42;56.23;101468.13;5054565;28;19952;-73
2023/04/04 07:03:00;;;;;;;;;;;;;;;4.71;56.02;101469.38;5053690;28;19913;-72
2023/04/04 07:05:26;;;;;;;;;;;;;;;4.85;55.04;101468.41;5035750;28;19925;-74
2023/04/04 07:07:56;;;;;;;;;;;;;;;4.98;53.02;101477.13;5036638;28;20004;-72
2023/04/04 07:10:23;;;;;;;;;;;;;;;4.97;52.51;101472.69;5035469;28;19917;-71
2023/04/04 07:12:50;;;;;;;;;;;;;;;5.06;52.21;101476.59;5018794;28;19921;-72
2023/04/04 07:15:18;;;;;;;;;;;;;;;5.22;52.75;101473.13;5036320;28;20275;-71
2023/04/04 07:17:45;;;;;;;;;;;;;;;5.42;51.89;101465.53;5036853;28;19914;-72
2023/04/04 07:20:13;;;;;;;;;;;;;;;5.40;49.50;101481.41;5036843;28;20344;-71
2023/04/04 07:22:43;;;;;;;;;;;;;;;5.45;50.98;101464.69;5036093;28;19936;-72
2023/04/04 07:25:08;;;;;;;;;;;;;;;5.60;50.42;101471.72;5036070;28;19924;-73
2023/04/04 07:27:34;;;;;;;;;;;;;;;5.70;50.75;101473.56;5036641;28;19913;-72
2023/04/04 07:30:05;;;;;;;;;;;;;;;5.71;48.22;101478.03;5036337;28;19919;-71
2023/04/04 07:32:30;;;;;;;;;;;;;;;5.75;48.09;101477.94;5035049;28;19917;-72
2023/04/04 07:34:56;;;;;;;;;;;;;;;5.72;45.99;101479.63;5036477;28;20046;-71
2023/04/04 07:37:22;;;;;;;;;;;;;;;5.61;46.16;101469.69;5036116;28;19935;-71
2023/04/04 07:39:48;;;;;;;;;;;;;;;5.72;47.13;101476.00;5036253;28;20012;-72
2023/04/04 07:42:25;;;;;;;;;;;;;;;5.92;46.37;101476.06;5036401;28;19920;-72
2023/04/04 07:44:51;;;;;;;;;;;;;;;5.84;44.25;101474.59;5036121;28;19944;-71
2023/04/04 07:47:21;;;;;;;;;;;;;;;5.91;44.49;101475.25;5034587;28;19925;-71
2023/04/04 07:49:47;;;;;;;;;;;;;;;6.02;43.21;101483.56;5035898;28;20374;-72
2023/04/04 07:52:12;;;;;;;;;;;;;;;5.76;42.70;101474.69;5036048;28;20381;-72
2023/04/04 07:54:39;;;;;;;;;;;;;;;5.56;42.78;101478.69;5036023;28;19917;-72
2023/04/04 07:57:05;;;;;;;;;;;;;;;5.19;43.60;101477.66;5034342;28;20000;-72
2023/04/04 07:59:33;;;;;;;;;;;;;;;5.02;43.33;101483.53;5018114;28;19953;-72
2023/04/04 08:02:00;;;;;;;;;;;;;;;5.07;44.14;101477.41;5035805;28;19913;-71
2023/04/04 08:04:27;;;;;;;;;;;;;;;5.25;44.04;101480.81;5038488;28;19921;-71
2023/04/04 08:06:53;;;;;;;;;;;;;;;5.43;44.42;101480.53;5055413;28;19974;-73
2023/04/04 08:09:19;;;;;;;;;;;;;;;5.62;43.13;101483.44;5055695;28;19912;-72
2023/04/04 08:11:44;;;;;;;;;;;;;;;5.67;42.66;101477.28;5054780;28;19921;-72
2023/04/04 08:14:11;;;;;;;;;;;;;;;5.62;42.67;101471.31;5055389;28;19974;-71
2023/04/04 08:16:37;;;;;;;;;;;;;;;5.73;43.27;101467.06;5054933;28;20280;-72
2023/04/04 08:19:04;;;;;;;;;;;;;;;5.73;42.21;101481.25;5037796;28;19917;-75
2023/04/04 08:21:30;;;;;;;;;;;;;;;5.61;42.81;101467.66;5055686;28;19912;-73
2023/04/04 08:23:56;;;;;;;;;;;;;;;5.70;43.59;101481.28;5053332;28;20020;-73
2023/04/04 08:26:23;;;;;;;;;;;;;;;5.76;43.22;101476.72;5053315;28;19947;-73
2023/04/04 08:28:49;;;;;;;;;;;;;;;5.59;42.42;101475.81;5039199;28;19913;-74
2023/04/04 08:31:15;;;;;;;;;;;;;;;5.72;43.42;101479.63;5058101;28;19939;-75
2023/04/04 08:33:41;;;;;;;;;;;;;;;6.01;43.00;101479.94;5040354;28;19959;-74
2023/04/04 08:36:07;;;;;;;;;;;;;;;6.36;43.11;101480.53;5058954;28;19913;-73
2023/04/04 08:38:33;;;;;;;;;;;;;;;6.40;40.69;101467.88;5055758;28;19920;-74
2023/04/04 08:40:59;;;;;;;;;;;;;;;6.35;41.05;101461.91;5055101;28;19935;-74
2023/04/04 08:43:25;;;;;;;;;;;;;;;6.45;40.66;101458.84;5055422;28;20302;-76
2023/04/04 08:45:52;;;;;;;;;;;;;;;6.57;41.02;101466.72;5037039;28;19917;-74
2023/04/04 08:48:18;;;;;;;;;;;;;;;6.59;40.98;101460.59;5037590;28;19916;-73
2023/04/04 08:50:45;;;;;;;;;;;;;;;6.50;39.89;101469.69;5054871;28;19912;-73
2023/04/04 08:53:11;;;;;;;;;;;;;;;6.43;40.38;101460.53;5037421;28;19920;-74
2023/04/04 08:55:38;;;;;;;;;;;;;;;6.07;40.34;101454.72;5036919;28;20284;-74
2023/04/04 08:58:04;;;;;;;;;;;;;;;5.91;40.75;101448.91;5036867;28;19948;-73
2023/04/04 09:00:31;;;;;;;;;;;;;;;5.97;41.37;101445.16;5055039;28;19912;-70
2023/04/04 09:03:00;;;;;;;;;;;;;;;6.23;41.38;101458.47;5036593;28;20301;-70
2023/04/04 09:05:26;;;;;;;;;;;;;;;6.53;41.19;101456.69;5054018;28;20388;-70
2023/04/04 09:07:52;;;;;;;;;;;;;;;6.55;41.08;101445.69;5030932;28;19975;-72
2023/04/04 09:10:22;;;;;;;;;;;;;;;6.65;41.07;101451.13;5036597;28;19925;-71
2023/04/04 09:12:47;;;;;;;;;;;;;;;6.51;40.57;101442.13;5054476;28;20373;-71
2023/04/04 09:15:13;;;;;;;;;;;;;;;6.50;40.90;101440.50;5035986;28;19913;-72
2023/04/04 09:17:38;;;;;;;;;;;;;;;6.68;40.60;101448.66;5036440;28;19963;-71
2023/04/04 09:20:25;;;;;;;;;;;;;;;6.77;39.83;101449.69;5036488;28;20341;-70
2023/04/04 09:22:51;;;;;;;;;;;;;;;6.60;39.52;101445.16;5035697;28;20309;-71
2023/04/04 09:25:16;;;;;;;;;;;;;;;6.94;39.68;101448.47;5050960;28;19952;-71
2023/04/04 09:27:43;;;;;;;;;;;;;;;7.39;38.59;101436.47;5019410;28;19944;-71
2023/04/04 09:30:09;;;;;;;;;;;;;;;7.54;37.63;101443.41;5036173;28;19916;-74
2023/04/04 09:32:45;;;;;;;;;;;;;;;7.89;37.87;101442.50;5020070;28;19913;-71
2023/04/04 09:35:12;;;;;;;;;;;;;;;8.07;37.20;101439.19;5055452;28;19920;-76
2023/04/04 09:37:39;;;;;;;;;;;;;;;8.46;38.08;101434.50;5019859;28;19913;-74
2023/04/04 09:40:05;;;;;;;;;;;;;;;8.65;36.45;101447.75;5036264;28;19913;-75
2023/04/04 09:42:31;;;;;;;;;;;;;;;8.38;35.89;101442.44;5036078;28;20370;-75
2023/04/04 09:44:56;;;;;;;;;;;;;;;8.19;36.42;101435.63;5053374;28;19979;-74
2023/04/04 09:47:26;;;;;;;;;;;;;;;8.03;36.99;101446.22;5053379;28;19916;-75
2023/04/04 09:49:51;;;;;;;;;;;;;;;8.41;38.10;101441.50;5053912;28;19920;-74
2023/04/04 09:52:18;;;;;;;;;;;;;;;8.62;36.12;101442.94;5053450;28;20289;-73
2023/04/04 09:54:44;;;;;;;;;;;;;;;8.64;36.64;101435.56;5053723;28;20311;-74
2023/04/04 09:57:10;;;;;;;;;;;;;;;8.12;36.18;101450.00;5053284;28;20379;-73
2023/04/04 09:59:36;;;;;;;;;;;;;;;7.79;36.85;101439.94;5036172;28;19916;-71
2023/04/04 10:02:01;;;;;;;;;;;;;;;7.66;37.37;101439.06;5018941;28;20339;-70
2023/04/04 10:04:27;;;;;;;;;;;;;;;7.51;37.48;101450.81;5052448;28;19920;-71
2023/04/04 10:07:02;;;;;;;;;;;;;;;7.61;37.59;101445.28;5035577;28;20305;-70
2023/04/04 10:09:28;;;;;;;;;;;;;;;8.05;38.00;101441.69;5053343;28;20389;-70
2023/04/04 10:12:07;;;;;;;;;;;;;;;8.20;35.81;101444.97;5053626;28;19920;-71
2023/04/04 10:14:41;;;;;;;;;;;;;;;8.40;36.37;101431.41;5035248;28;20316;-74
2023/04/04 10:17:09;;;;;;;;;;;;;;;8.53;35.63;101435.06;5053283;28;20386;-72
2023/04/04 10:19:36;;;;;;;;;;;;;;;8.61;36.69;101430.75;5054042;28;19959;-72
2023/04/04 10:22:02;;;;;;;;;;;;;;;8.48;35.89;101424.22;5035829;28;19917;-74
2023/04/04 10:24:27;;;;;;;;;;;;;;;8.46;35.91;101426.72;5053195;28;19916;-73
2023/04/04 10:26:54;;;;;;;;;;;;;;;8.38;35.91;101416.78;5053045;28;20281;-75
2023/04/04 10:29:21;;;;;;;;;;;;;;;8.55;36.22;101418.34;5053313;28;19932;-72
2023/04/04 10:31:46;;;;;;;;;;;;;;;8.64;35.77;101429.06;5053193;28;19917;-72
2023/04/04 10:34:13;;;;;;;;;;;;;;;8.53;35.92;101411.47;5036481;28;19917;-72
2023/04/04 10:36:45;;;;;;;;;;;;;;;8.74;34.66;101430.81;5057457;28;19913;-71
2023/04/04 10:39:14;;;;;;;;;;;;;;;8.39;35.08;101419.19;5021269;28;19951;-71
2023/04/04 10:41:40;;;;;;;;;;;;;;;8.58;35.80;101416.63;5036790;28;19919;-71
2023/04/04 10:44:29;;;;;;;;;;;;;;;8.37;35.99;101415.19;5055111;28;20019;-69
2023/04/04 10:46:54;;;;;;;;;;;;;;;8.44;36.24;101417.03;5046737;28;19913;-71
2023/04/04 10:49:20;;;;;;;;;;;;;;;8.63;36.12;101418.91;5054672;28;19913;-73
2023/04/04 10:51:45;;;;;;;;;;;;;;;8.88;36.83;101430.38;5037176;28;19999;-72
2023/04/04 10:54:11;;;;;;;;;;;;;;;9.23;35.76;101426.41;5036578;28;20386;-72
2023/04/04 10:56:36;;;;;;;;;;;;;;;9.43;35.51;101416.81;5037488;28;19912;-69
2023/04/04 10:59:12;;;;;;;;;;;;;;;9.68;35.41;101414.72;5057127;28;19912;-70
2023/04/04 11:02:06;;;;;;;;;;;;;;;9.77;34.96;101405.47;5056491;28;20007;-71
2023/04/04 11:04:41;;;;;;;;;;;;;;;9.74;34.33;101403.56;5043146;28;20318;-71
2023/04/04 11:07:14;;;;;;;;;;;;;;;9.64;34.64;101396.13;5056495;28;20378;-71
2023/04/04 11:09:46;;;;;;;;;;;;;;;9.56;35.34;101398.41;5039127;28;19920;-70
2023/04/04 11:12:18;;;;;;;;;;;;;;;9.64;35.17;101398.97;5056412;28;19958;-72
2023/04/04 11:14:54;;;;;;;;;;;;;;;9.47;33.88;101391.81;5039622;28;20321;-72
2023/04/04 11:17:34;;;;;;;;;;;;;;;9.42;34.12;101395.25;5038574;28;19913;-70
2023/04/04 11:19:59;;;;;;;;;;;;;;;9.25;34.85;101389.66;5038070;28;19975;-71
2023/04/04 11:22:25;;;;;;;;;;;;;;;9.05;34.91;101386.25;5056821;28;20383;-70
2023/04/04 11:24:58;;;;;;;;;;;;;;;8.95;34.69;101378.06;5056296;28;20015;-71
2023/04/04 11:27:24;;;;;;;;;;;;;;;9.00;34.74;101381.09;5038973;28;19960;-72
2023/04/04 11:29:50;;;;;;;;;;;;;;;9.01;33.89;101382.72;5056157;28;19940;-71
2023/04/04 11:32:34;;;;;;;;;;;;;;;8.93;34.46;101375.66;5038606;28;19924;-70
2023/04/04 11:34:59;;;;;;;;;;;;;;;8.86;34.68;101380.75;5056202;28;19916;-71
2023/04/04 11:37:25;;;;;;;;;;;;;;;8.25;34.95;101376.91;5056053;28;19986;-71
2023/04/04 11:39:57;;;;;;;;;;;;;;;7.92;35.74;101375.34;5055886;28;19920;-72
2023/04/04 11:42:23;;;;;;;;;;;;;;;7.85;36.40;101376.34;5039099;28;20288;-71
2023/04/04 11:44:48;;;;;;;;;;;;;;;7.91;36.56;101388.81;5056007;28;19923;-72
2023/04/04 11:47:14;;;;;;;;;;;;;;;7.93;37.08;101389.13;5054553;28;20306;-71
2023/04/04 11:49:40;;;;;;;;;;;;;;;7.72;36.82;101383.25;5038021;28;19920;-71
2023/04/04 11:52:07;;;;;;;;;;;;;;;7.52;37.84;101378.44;5055806;28;19917;-71
2023/04/04 11:54:33;;;;;;;;;;;;;;;7.60;38.06;101383.94;5021372;28;19961;-71
2023/04/04 11:56:59;;;;;;;;;;;;;;;7.73;38.10;101391.31;5037693;28;19913;-71
2023/04/04 11:59:24;;;;;;;;;;;;;;;7.43;37.56;101392.47;5055650;28;20362;-70
2023/04/04 12:01:49;;;;;;;;;;;;;;;7.33;38.86;101387.88;5055489;28;19959;-70
2023/04/04 12:04:18;;;;;;;;;;;;;;;7.28;38.59;101373.38;5055257;28;19917;-71
2023/04/04 12:06:45;;;;;;;;;;;;;;;7.26;38.59;101381.56;5055623;28;19970;-71
2023/04/04 12:09:16;;;;;;;;;;;;;;;6.95;38.98;101375.41;5054985;28;20276;-70
2023/04/04 12:11:41;;;;;;;;;;;;;;;6.78;40.24;101376.63;5055249;28;19986;-71
2023/04/04 12:14:13;;;;;;;;;;;;;;;7.06;39.97;101390.16;5020732;28;19912;-71
2023/04/04 12:16:39;;;;;;;;;;;;;;;7.22;39.26;101383.69;5055134;28;19913;-72
2023/04/04 12:19:04;;;;;;;;;;;;;;;7.29;38.92;101378.63;5055098;28;19912;-71
2023/04/04 12:21:31;;;;;;;;;;;;;;;6.98;38.61;101388.72;5055032;28;20077;-72
2023/04/04 12:23:56;;;;;;;;;;;;;;;6.82;39.63;101363.13;5054963;28;19963;-70
2023/04/04 12:26:22;;;;;;;;;;;;;;;6.82;39.36;101363.94;5055324;28;19960;-69
2023/04/04 12:28:47;;;;;;;;;;;;;;;7.05;39.88;101365.81;5055035;28;19982;-71
2023/04/04 12:31:13;;;;;;;;;;;;;;;7.30;39.91;101371.69;5057192;28;19989;-71
2023/04/04 12:33:41;;;;;;;;;;;;;;;7.28;39.88;101362.81;5035183;28;19955;-70
2023/04/04 12:36:07;;;;;;;;;;;;;;;7.34;39.62;101369.56;5036888;28;19917;-72
2023/04/04 12:38:32;;;;;;;;;;;;;;;7.45;39.93;101367.25;5055627;28;19912;-71
2023/04/04 12:40:57;;;;;;;;;;;;;;;7.42;39.70;101365.28;5057869;28;19924;-71
2023/04/04 12:43:25;;;;;;;;;;;;;;;7.40;39.64;101356.41;5041090;28;19912;-72
2023/04/04 12:45:51;;;;;;;;;;;;;;;7.51;40.32;101356.94;5040180;28;19913;-72